KTLH/TLH METAR and TAF weather

Enter ICAO airport designator
Station Type Date Time Source
KTLH METAR 2019/10/23 13:53 UTC NOAA

KTLH 231353Z 02006KT 10SM SCT180 BKN250 17/05 A3017 RMK AO2 SLP214 T01670050


Station Type Date Time Source
KTLH Decoded METAR 2019/10/23 13:53 UTC NOAA

TALLAHASSEE REGIONAL AIRPORT , FL, United States (KTLH) 30-24N 84-21W 16M
Oct 23, 2019 - 09:53 AM EDT / 2019.10.23 1353 UTC
Wind: from the NNE (020 degrees) at 7 MPH (6 KT):0
Visibility: 10 mile(s):0
Sky conditions: mostly cloudy
Temperature: 62.1 F (16.7 C)
Dew Point: 41.0 F (5.0 C)
Relative Humidity: 45%
Pressure (altimeter): 30.17 in. Hg (1021 hPa)
ob: KTLH 231353Z 02006KT 10SM SCT180 BKN250 17/05 A3017 RMK AO2 SLP214 T01670050
cycle: 14

Station Type Date Time Source
KTLH TAF 2019/10/23 12:22 UTC NOAA

TAF KTLH 231120Z 2312/2412 04006KT P6SM SKC
FM240000 00000KT P6SM SKC

Example: see airport list